Time,TemperatureF,DewpointF,PressureIn,WindDirection,WindDirectionDegrees,WindSpeedMPH,WindSpeedGustMPH,Humidity,HourlyPrecipIn,Conditions,Clouds,dailyrainin,SoftwareType,DateUTC
2013-04-23 00:02:00,69.0,59.0,29.78,South,187,10.0,10.0,71,0.00,,,0.00,,2013-04-23 05:02:00,
2013-04-23 00:12:00,69.0,59.0,29.78,South,187,10.0,10.0,71,0.00,,,0.00,,2013-04-23 05:12:00,
2013-04-23 00:22:00,69.0,59.0,29.78,South,176,7.0,7.0,71,0.00,,,0.00,,2013-04-23 05:22:00,
2013-04-23 00:32:00,69.0,59.0,29.78,SSW,194,9.0,9.0,71,0.00,,,0.00,,2013-04-23 05:32:00,
2013-04-23 00:42:00,69.0,59.0,29.78,SSW,194,9.0,9.0,71,0.00,,,0.00,,2013-04-23 05:42:00,
2013-04-23 00:52:00,69.0,59.0,29.77,South,177,11.0,11.0,71,0.00,,,0.00,,2013-04-23 05:52:00,
2013-04-23 01:01:00,69.0,59.0,29.76,SW,233,11.0,11.0,70,0.00,,,0.00,,2013-04-23 06:01:00,
2013-04-23 01:12:00,69.0,59.0,29.76,SW,233,11.0,11.0,70,0.00,,,0.00,,2013-04-23 06:12:00,
2013-04-23 01:21:00,70.0,60.0,29.75,South,183,11.0,14.0,70,0.00,,,0.00,,2013-04-23 06:21:00,
2013-04-23 01:33:00,69.0,59.0,29.75,South,172,10.0,10.0,70,0.00,,,0.00,,2013-04-23 06:33:00,
2013-04-23 01:42:00,69.0,59.0,29.75,South,172,10.0,10.0,70,0.00,,,0.00,,2013-04-23 06:42:00,
2013-04-23 01:52:00,69.0,59.0,29.76,SW,217,9.0,18.0,71,0.00,,,0.00,,2013-04-23 06:52:00,
2013-04-23 02:02:00,69.0,60.0,29.76,SSW,208,7.0,12.0,72,0.00,,,0.00,,2013-04-23 07:02:00,
2013-04-23 02:11:00,69.0,60.0,29.76,SSW,208,7.0,12.0,72,0.00,,,0.00,,2013-04-23 07:11:00,
2013-04-23 02:21:00,69.0,60.0,29.77,SE,135,10.0,10.0,72,0.00,,,0.00,,2013-04-23 07:21:00,
2013-04-23 02:32:00,69.0,60.0,29.76,South,179,8.0,10.0,72,0.00,,,0.00,,2013-04-23 07:32:00,
2013-04-23 02:42:00,69.0,60.0,29.76,South,179,8.0,10.0,72,0.00,,,0.00,,2013-04-23 07:42:00,
2013-04-23 02:52:00,69.0,60.0,29.75,South,176,11.0,11.0,72,0.00,,,0.00,,2013-04-23 07:52:00,
2013-04-23 03:02:00,69.0,60.0,29.74,South,169,10.0,10.0,73,0.00,,,0.00,,2013-04-23 08:02:00,
2013-04-23 03:11:00,69.0,60.0,29.74,South,169,10.0,10.0,73,0.00,,,0.00,,2013-04-23 08:11:00,
2013-04-23 03:21:00,68.0,59.0,29.74,South,173,6.0,8.0,74,0.00,,,0.00,,2013-04-23 08:21:00,
2013-04-23 03:31:00,67.0,59.0,29.75,SSW,194,4.0,5.0,76,0.00,,,0.00,,2013-04-23 08:31:00,
2013-04-23 03:42:00,67.0,59.0,29.75,SSW,194,4.0,5.0,76,0.00,,,0.00,,2013-04-23 08:42:00,
2013-04-23 03:52:00,67.0,60.0,29.75,SE,141,2.0,4.0,77,0.00,,,0.00,,2013-04-23 08:52:00,
2013-04-23 04:01:00,65.0,59.0,29.75,SW,224,3.0,7.0,81,0.00,,,0.00,,2013-04-23 09:01:00,
2013-04-23 04:11:00,65.0,59.0,29.75,SW,224,3.0,7.0,81,0.00,,,0.00,,2013-04-23 09:11:00,
2013-04-23 04:21:00,65.0,59.0,29.74,SSW,212,6.0,6.0,82,0.00,,,0.00,,2013-04-23 09:21:00,
2013-04-23 04:33:00,65.0,60.0,29.74,SSW,197,5.0,7.0,84,0.00,,,0.00,,2013-04-23 09:33:00,
2013-04-23 04:42:00,65.0,60.0,29.74,SSW,197,5.0,7.0,84,0.00,,,0.00,,2013-04-23 09:42:00,
2013-04-23 04:53:00,65.0,60.0,29.74,SSW,212,4.0,10.0,85,0.00,,,0.00,,2013-04-23 09:53:00,
2013-04-23 05:02:00,65.0,61.0,29.74,SSW,198,6.0,6.0,86,0.00,,,0.00,,2013-04-23 10:02:00,
2013-04-23 05:13:00,65.0,61.0,29.74,SSW,198,6.0,6.0,86,0.00,,,0.00,,2013-04-23 10:13:00,
2013-04-23 05:22:00,65.0,61.0,29.75,WSW,238,3.0,3.0,88,0.00,,,0.00,,2013-04-23 10:22:00,
2013-04-23 05:32:00,64.0,61.0,29.76,SSW,212,2.0,2.0,90,0.00,,,0.00,,2013-04-23 10:32:00,
2013-04-23 05:42:00,64.0,61.0,29.76,SSW,212,2.0,2.0,90,0.00,,,0.00,,2013-04-23 10:42:00,
2013-04-23 05:52:00,62.0,60.0,29.75,South,190,3.0,3.0,92,0.00,,,0.00,,2013-04-23 10:52:00,
2013-04-23 06:02:00,62.0,61.0,29.78,WSW,243,3.0,0.0,95,0.00,,,0.00,,2013-04-23 11:02:00,
2013-04-23 06:12:00,64.0,61.0,29.82,NNW,335,9.0,9.0,90,0.00,,,0.00,,2013-04-23 11:12:00,
2013-04-23 06:21:00,64.0,61.0,29.82,NNW,335,9.0,9.0,90,0.00,,,0.00,,2013-04-23 11:21:00,
2013-04-23 06:32:00,67.0,62.0,29.83,NNE,13,10.0,10.0,84,0.00,,,0.00,,2013-04-23 11:32:00,
2013-04-23 06:42:00,67.0,62.0,29.85,North,353,8.0,8.0,83,0.00,,,0.00,,2013-04-23 11:42:00,
2013-04-23 06:53:00,67.0,62.0,29.85,North,353,8.0,8.0,83,0.00,,,0.00,,2013-04-23 11:53:00,
2013-04-23 07:02:00,67.0,62.0,29.85,SE,146,0.0,0.0,83,0.00,,,0.00,,2013-04-23 12:02:00,
2013-04-23 07:12:00,67.0,62.0,29.85,SE,146,0.0,0.0,83,0.00,,,0.00,,2013-04-23 12:12:00,
2013-04-23 07:22:00,59.0,50.0,29.89,NW,318,13.0,14.0,71,0.00,,,0.00,,2013-04-23 12:22:00,
2013-04-23 07:32:00,53.0,46.0,29.91,North,1,17.0,21.0,77,0.00,,,0.00,,2013-04-23 12:32:00,
2013-04-23 07:41:00,53.0,46.0,29.91,North,1,17.0,21.0,77,0.00,,,0.00,,2013-04-23 12:41:00,
2013-04-23 07:52:00,51.0,44.0,29.93,NW,319,18.0,18.0,78,0.00,,,0.00,,2013-04-23 12:52:00,
2013-04-23 08:01:00,51.0,45.0,29.94,NW,312,17.0,17.0,79,0.00,,,0.00,,2013-04-23 13:01:00,
2013-04-23 08:11:00,51.0,45.0,29.94,NW,312,17.0,17.0,79,0.00,,,0.00,,2013-04-23 13:11:00,
2013-04-23 08:21:00,49.0,43.0,29.96,NNW,332,15.0,19.0,79,0.00,,,0.00,,2013-04-23 13:21:00,
2013-04-23 08:32:00,49.0,43.0,29.97,NNW,332,15.0,15.0,80,0.00,,,0.00,,2013-04-23 13:32:00,
2013-04-23 08:41:00,49.0,43.0,29.97,NNW,332,15.0,15.0,80,0.00,,,0.00,,2013-04-23 13:41:00,
2013-04-23 08:52:00,49.0,43.0,29.98,NW,323,20.0,20.0,80,0.00,,,0.00,,2013-04-23 13:52:00,
2013-04-23 09:01:00,48.0,42.0,30.00,NW,325,18.0,19.0,81,0.00,,,0.00,,2013-04-23 14:01:00,
2013-04-23 09:11:00,48.0,42.0,30.00,NW,325,18.0,19.0,81,0.00,,,0.00,,2013-04-23 14:11:00,
2013-04-23 09:22:00,48.0,42.0,30.00,NNW,336,16.0,16.0,81,0.00,,,0.00,,2013-04-23 14:22:00,
2013-04-23 09:32:00,48.0,42.0,30.02,NW,319,16.0,16.0,81,0.00,,,0.00,,2013-04-23 14:32:00,
2013-04-23 09:42:00,48.0,42.0,30.02,NW,319,16.0,16.0,81,0.00,,,0.00,,2013-04-23 14:42:00,
2013-04-23 09:52:00,47.0,42.0,30.03,NNW,343,16.0,18.0,82,0.00,,,0.00,,2013-04-23 14:52:00,
2013-04-23 10:01:00,47.0,42.0,30.03,NNW,343,16.0,18.0,82,0.00,,,0.00,,2013-04-23 15:01:00,
2013-04-23 10:12:00,47.0,42.0,30.04,NW,315,16.0,16.0,83,0.00,,,0.00,,2013-04-23 15:12:00,
2013-04-23 10:21:00,47.0,41.0,30.05,North,357,15.0,15.0,81,0.00,,,0.00,,2013-04-23 15:21:00,
2013-04-23 10:32:00,47.0,41.0,30.06,NNW,333,14.0,14.0,81,0.00,,,0.00,,2013-04-23 15:32:00,
2013-04-23 10:42:00,47.0,41.0,30.06,NNW,333,14.0,14.0,81,0.00,,,0.00,,2013-04-23 15:42:00,
2013-04-23 10:53:00,47.0,42.0,30.06,North,3,16.0,16.0,82,0.00,,,0.00,,2013-04-23 15:53:00,
2013-04-23 11:02:00,47.0,42.0,30.06,North,1,15.0,15.0,82,0.00,,,0.00,,2013-04-23 16:02:00,
2013-04-23 11:12:00,47.0,42.0,30.06,North,1,15.0,15.0,82,0.00,,,0.00,,2013-04-23 16:12:00,
2013-04-23 11:23:00,47.0,41.0,30.07,NNW,339,15.0,15.0,80,0.00,,,0.00,,2013-04-23 16:23:00,
2013-04-23 11:34:00,48.0,41.0,30.07,NNW,347,14.0,14.0,78,0.00,,,0.00,,2013-04-23 16:34:00,
2013-04-23 11:42:00,48.0,41.0,30.07,NNW,347,14.0,14.0,78,0.00,,,0.00,,2013-04-23 16:42:00,
2013-04-23 11:53:00,47.0,41.0,30.08,NNW,343,14.0,15.0,80,0.00,,,0.00,,2013-04-23 16:53:00,
2013-04-23 12:02:00,47.0,41.0,30.08,North,1,13.0,15.0,79,0.00,,,0.00,,2013-04-23 17:02:00,
2013-04-23 12:11:00,47.0,41.0,30.08,North,1,13.0,15.0,79,0.00,,,0.00,,2013-04-23 17:11:00,
2013-04-23 12:22:00,47.0,40.0,30.08,NNW,338,13.0,13.0,77,0.00,,,0.00,,2013-04-23 17:22:00,
2013-04-23 12:32:00,49.0,41.0,30.08,North,8,14.0,14.0,75,0.00,,,0.00,,2013-04-23 17:32:00,
2013-04-23 12:42:00,49.0,41.0,30.08,North,8,14.0,14.0,75,0.00,,,0.00,,2013-04-23 17:42:00,
2013-04-23 12:53:00,48.0,41.0,30.07,NW,316,16.0,16.0,76,0.00,,,0.00,,2013-04-23 17:53:00,
2013-04-23 13:02:00,48.0,41.0,30.07,NNW,332,13.0,18.0,77,0.00,,,0.00,,2013-04-23 18:02:00,
2013-04-23 13:12:00,48.0,41.0,30.07,NNW,332,13.0,18.0,77,0.00,,,0.00,,2013-04-23 18:12:00,
2013-04-23 13:22:00,48.0,41.0,30.08,WNW,295,11.0,11.0,76,0.00,,,0.00,,2013-04-23 18:22:00,
2013-04-23 13:32:00,48.0,40.0,30.07,North,4,13.0,17.0,75,0.00,,,0.00,,2013-04-23 18:32:00,
2013-04-23 13:42:00,48.0,40.0,30.07,North,4,13.0,17.0,75,0.00,,,0.00,,2013-04-23 18:42:00,
2013-04-23 13:52:00,48.0,41.0,30.07,North,10,11.0,11.0,76,0.00,,,0.00,,2013-04-23 18:52:00,
2013-04-23 14:02:00,48.0,40.0,30.07,NNE,13,12.0,16.0,75,0.00,,,0.00,,2013-04-23 19:02:00,
2013-04-23 14:11:00,48.0,40.0,30.07,NNE,13,12.0,16.0,75,0.00,,,0.00,,2013-04-23 19:11:00,
2013-04-23 14:21:00,48.0,40.0,30.08,NNW,340,10.0,10.0,74,0.00,,,0.00,,2013-04-23 19:21:00,
2013-04-23 14:32:00,48.0,40.0,30.07,NNW,345,13.0,13.0,74,0.00,,,0.00,,2013-04-23 19:32:00,
2013-04-23 14:42:00,48.0,40.0,30.07,NNW,345,13.0,13.0,74,0.00,,,0.00,,2013-04-23 19:42:00,
2013-04-23 14:52:00,49.0,41.0,30.07,NNW,342,12.0,12.0,74,0.00,,,0.00,,2013-04-23 19:52:00,
2013-04-23 15:01:00,49.0,41.0,30.06,NNW,342,14.0,14.0,73,0.00,,,0.00,,2013-04-23 20:01:00,
2013-04-23 15:11:00,49.0,41.0,30.06,NNW,342,14.0,14.0,73,0.00,,,0.00,,2013-04-23 20:11:00,
2013-04-23 15:22:00,49.0,41.0,30.07,NW,309,8.0,12.0,73,0.00,,,0.00,,2013-04-23 20:22:00,
2013-04-23 15:31:00,49.0,40.0,30.06,NW,325,8.0,11.0,72,0.00,,,0.00,,2013-04-23 20:31:00,
2013-04-23 15:42:00,49.0,40.0,30.06,NW,325,8.0,11.0,72,0.00,,,0.00,,2013-04-23 20:42:00,
2013-04-23 15:52:00,49.0,40.0,30.06,NW,314,8.0,10.0,71,0.00,,,0.00,,2013-04-23 20:52:00,
2013-04-23 16:01:00,50.0,41.0,30.06,North,8,9.0,9.0,71,0.00,,,0.00,,2013-04-23 21:01:00,
2013-04-23 16:12:00,50.0,41.0,30.06,North,8,9.0,9.0,71,0.00,,,0.00,,2013-04-23 21:12:00,
2013-04-23 16:21:00,50.0,41.0,30.05,North,359,9.0,9.0,70,0.00,,,0.00,,2013-04-23 21:21:00,
2013-04-23 16:33:00,50.0,41.0,30.05,North,4,9.0,9.0,70,0.00,,,0.00,,2013-04-23 21:33:00,
2013-04-23 16:43:00,50.0,41.0,30.05,North,4,9.0,9.0,70,0.00,,,0.00,,2013-04-23 21:43:00,
2013-04-23 16:52:00,50.0,40.0,30.04,North,359,9.0,9.0,69,0.00,,,0.00,,2013-04-23 21:52:00,
2013-04-23 17:03:00,51.0,41.0,30.03,NNE,17,8.0,13.0,69,0.00,,,0.00,,2013-04-23 22:03:00,
2013-04-23 17:12:00,51.0,41.0,30.03,NNE,17,8.0,13.0,69,0.00,,,0.00,,2013-04-23 22:12:00,
2013-04-23 17:22:00,51.0,41.0,30.03,NNE,20,11.0,12.0,68,0.00,,,0.00,,2013-04-23 22:22:00,
2013-04-23 17:33:00,51.0,41.0,30.03,North,359,11.0,12.0,68,0.00,,,0.00,,2013-04-23 22:33:00,
2013-04-23 17:42:00,51.0,41.0,30.03,North,359,11.0,12.0,68,0.00,,,0.00,,2013-04-23 22:42:00,
2013-04-23 17:52:00,50.0,40.0,30.03,NNW,347,8.0,13.0,68,0.00,,,0.00,,2013-04-23 22:52:00,
2013-04-23 18:02:00,51.0,41.0,30.02,NNE,17,8.0,9.0,68,0.00,,,0.00,,2013-04-23 23:02:00,
2013-04-23 18:12:00,51.0,41.0,30.02,NNE,17,8.0,9.0,68,0.00,,,0.00,,2013-04-23 23:12:00,
2013-04-23 18:22:00,51.0,40.0,30.02,North,7,10.0,10.0,67,0.00,,,0.00,,2013-04-23 23:22:00,
2013-04-23 18:32:00,51.0,40.0,30.02,NE,41,13.0,13.0,66,0.00,,,0.00,,2013-04-23 23:32:00,
2013-04-23 18:42:00,52.0,41.0,30.03,NNE,17,10.0,10.0,66,0.00,,,0.00,,2013-04-23 23:42:00,
2013-04-23 18:52:00,52.0,41.0,30.03,NNE,17,10.0,10.0,66,0.00,,,0.00,,2013-04-23 23:52:00,
2013-04-23 19:01:00,51.0,40.0,30.03,NNE,17,9.0,9.0,67,0.00,,,0.00,,2013-04-24 00:01:00,
2013-04-23 19:11:00,51.0,40.0,30.03,NNE,17,9.0,9.0,67,0.00,,,0.00,,2013-04-24 00:11:00,
2013-04-23 19:21:00,51.0,40.0,30.03,North,359,7.0,7.0,67,0.00,,,0.00,,2013-04-24 00:21:00,
2013-04-23 19:32:00,51.0,40.0,30.04,NNE,25,11.0,11.0,67,0.00,,,0.00,,2013-04-24 00:32:00,
2013-04-23 19:41:00,51.0,40.0,30.04,NNE,25,11.0,11.0,67,0.00,,,0.00,,2013-04-24 00:41:00,
2013-04-23 19:52:00,51.0,40.0,30.05,North,1,10.0,13.0,67,0.00,,,0.00,,2013-04-24 00:52:00,
2013-04-23 20:01:00,50.0,40.0,30.05,NE,37,11.0,11.0,68,0.00,,,0.00,,2013-04-24 01:01:00,
2013-04-23 20:11:00,50.0,40.0,30.05,NE,37,11.0,11.0,68,0.00,,,0.00,,2013-04-24 01:11:00,
2013-04-23 20:21:00,50.0,40.0,30.06,North,11,10.0,10.0,68,0.00,,,0.00,,2013-04-24 01:21:00,
2013-04-23 20:32:00,50.0,40.0,30.07,North,349,11.0,12.0,68,0.00,,,0.00,,2013-04-24 01:32:00,
2013-04-23 20:42:00,50.0,40.0,30.07,North,349,11.0,12.0,68,0.00,,,0.00,,2013-04-24 01:42:00,
2013-04-23 20:52:00,50.0,40.0,30.08,North,359,7.0,7.0,68,0.00,,,0.00,,2013-04-24 01:52:00,
2013-04-23 21:02:00,49.0,39.0,30.09,NNE,17,9.0,9.0,68,0.00,,,0.00,,2013-04-24 02:02:00,
2013-04-23 21:16:00,49.0,39.0,30.09,NNE,17,9.0,9.0,68,0.00,,,0.00,,2013-04-24 02:16:00,
2013-04-23 21:37:00,49.0,39.0,30.11,North,3,10.0,10.0,69,0.00,,,0.00,,2013-04-24 02:37:00,
2013-04-23 21:46:00,49.0,39.0,30.11,North,3,10.0,10.0,69,0.00,,,0.00,,2013-04-24 02:46:00,
2013-04-23 21:59:00,49.0,39.0,30.13,North,0,12.0,13.0,69,0.00,,,0.00,,2013-04-24 02:59:00,
2013-04-23 22:07:00,48.0,38.0,30.15,NNW,328,14.0,19.0,69,0.00,,,0.00,,2013-04-24 03:07:00,
2013-04-23 22:15:00,48.0,38.0,30.15,NNW,328,14.0,19.0,69,0.00,,,0.00,,2013-04-24 03:15:00,
2013-04-23 22:38:00,47.0,38.0,30.17,NW,325,12.0,12.0,70,0.00,,,0.00,,2013-04-24 03:38:00,
2013-04-23 22:48:00,47.0,38.0,30.17,NW,325,12.0,12.0,70,0.00,,,0.00,,2013-04-24 03:48:00,
2013-04-23 23:03:00,46.0,37.0,30.18,North,11,16.0,16.0,71,0.00,,,0.00,,2013-04-24 04:03:00,
2013-04-23 23:12:00,46.0,37.0,30.18,North,11,16.0,16.0,71,0.00,,,0.00,,2013-04-24 04:12:00,
2013-04-23 23:23:00,46.0,37.0,30.19,NW,325,15.0,16.0,72,0.00,,,0.00,,2013-04-24 04:23:00,
2013-04-23 23:33:00,45.0,37.0,30.20,NW,316,18.0,18.0,72,0.00,,,0.00,,2013-04-24 04:33:00,
2013-04-23 23:43:00,45.0,37.0,30.20,NW,316,18.0,18.0,72,0.00,,,0.00,,2013-04-24 04:43:00,
2013-04-23 23:53:00,45.0,37.0,30.21,NNE,21,17.0,17.0,74,0.00,,,0.00,,2013-04-24 04:53:00,